Time;durP1;ratioP1;P1;durP2;ratioP2;P2;SDS_P1;SDS_P2;PMS_P1;PMS_P2;Temp;Humidity;BMP_temperature;BMP_pressure;BME280_temperature;BME280_humidity;BME280_pressure;Samples;Min_cycle;Max_cycle;Signal;HPM_P1;HPM_P2
2021/12/19 00:01:56;;;;;;;12.13;5.38;;;8.20;99.90;;;;;;5036141;28;20102;-69
2021/12/19 00:04:30;;;;;;;11.45;5.47;;;8.20;99.90;;;;;;5031005;28;20072;-70
2021/12/19 00:09:40;;;;;;;14.40;5.70;;;8.20;99.90;;;;;;5036926;28;20497;-69
2021/12/19 00:12:06;;;;;;;10.07;5.07;;;8.20;99.90;;;;;;5047124;28;20045;-69
2021/12/19 00:14:32;;;;;;;11.13;5.72;;;8.20;99.90;;;;;;5038959;28;20129;-69
2021/12/19 00:16:58;;;;;;;11.75;5.97;;;8.30;99.90;;;;;;5028641;28;20041;-69
2021/12/19 00:19:23;;;;;;;9.68;4.90;;;8.20;99.90;;;;;;5027128;28;20061;-69
2021/12/19 00:21:49;;;;;;;12.50;6.43;;;8.30;99.90;;;;;;5026633;28;20406;-70
2021/12/19 00:24:15;;;;;;;19.58;6.70;;;8.40;99.90;;;;;;5028558;28;20077;-69
2021/12/19 00:26:41;;;;;;;15.00;6.65;;;8.30;99.90;;;;;;5045519;28;20068;-69
2021/12/19 00:29:08;;;;;;;15.75;6.35;;;8.30;99.90;;;;;;5047101;28;20045;-69
2021/12/19 00:31:33;;;;;;;14.95;6.25;;;8.40;99.90;;;;;;5034192;28;20129;-70
2021/12/19 00:34:00;;;;;;;12.63;5.90;;;8.40;99.90;;;;;;5038968;28;20120;-70
2021/12/19 00:36:26;;;;;;;14.05;5.78;;;8.40;99.90;;;;;;5048579;28;20052;-70
2021/12/19 00:38:52;;;;;;;11.55;5.00;;;8.40;99.90;;;;;;5017787;28;20049;-69
2021/12/19 00:41:18;;;;;;;13.30;4.85;;;8.40;99.90;;;;;;5045762;28;20048;-70
2021/12/19 00:43:47;;;;;;;9.77;4.30;;;8.30;99.90;;;;;;5034598;28;20440;-69
2021/12/19 00:46:15;;;;;;;7.22;3.47;;;8.30;99.90;;;;;;5048801;28;20059;-69
2021/12/19 00:48:44;;;;;;;4.82;2.65;;;8.30;99.90;;;;;;5052049;28;20393;-69
2021/12/19 00:51:14;;;;;;;9.82;2.53;;;8.80;99.90;;;;;;5049192;28;20092;-69
2021/12/19 00:53:40;;;;;;;8.35;1.90;;;9.70;99.90;;;;;;5050125;28;20123;-69
2021/12/19 00:56:06;;;;;;;3.60;2.00;;;8.30;99.90;;;;;;5048471;28;20044;-69
2021/12/19 00:58:32;;;;;;;4.85;2.22;;;8.20;99.90;;;;;;5050699;28;20400;-69
2021/12/19 01:00:58;;;;;;;4.10;1.80;;;8.20;99.90;;;;;;5051338;28;20040;-69
2021/12/19 01:03:24;;;;;;;5.70;1.70;;;8.30;99.90;;;;;;5049511;28;20080;-69
2021/12/19 01:05:52;;;;;;;4.18;2.00;;;8.20;99.90;;;;;;5051039;28;20115;-69
2021/12/19 01:08:17;;;;;;;6.43;2.28;;;8.10;99.90;;;;;;5049708;28;20033;-69
2021/12/19 01:10:45;;;;;;;3.30;1.77;;;8.00;99.90;;;;;;5030746;28;20099;-69
2021/12/19 01:13:12;;;;;;;4.93;1.90;;;8.00;99.90;;;;;;5032339;28;20128;-69
2021/12/19 01:15:39;;;;;;;5.30;1.60;;;8.00;99.90;;;;;;5051629;28;20345;-69
2021/12/19 01:18:09;;;;;;;4.20;1.60;;;7.90;99.90;;;;;;5032678;28;20048;-70
2021/12/19 01:20:36;;;;;;;4.15;1.70;;;7.90;99.90;;;;;;5046182;28;20053;-69
2021/12/19 01:23:03;;;;;;;4.05;1.45;;;7.90;99.90;;;;;;5030102;28;20496;-69
2021/12/19 01:25:28;;;;;;;3.22;1.38;;;8.80;99.90;;;;;;5030317;28;20488;-71
2021/12/19 01:27:54;;;;;;;2.95;1.42;;;7.90;99.90;;;;;;5031507;28;20045;-69
2021/12/19 01:30:20;;;;;;;4.95;1.25;;;7.80;99.90;;;;;;5030480;28;20121;-69
2021/12/19 01:32:46;;;;;;;3.75;1.20;;;8.00;99.90;;;;;;5029963;28;20104;-69
2021/12/19 01:35:13;;;;;;;2.42;1.27;;;7.80;99.90;;;;;;5031365;28;20076;-69
2021/12/19 01:37:39;;;;;;;4.40;2.75;;;7.80;99.90;;;;;;5031459;28;20077;-69
2021/12/19 01:40:07;;;;;;;7.75;4.20;;;7.80;99.90;;;;;;5046774;28;20036;-69
2021/12/19 01:42:38;;;;;;;5.10;2.00;;;7.80;99.90;;;;;;5034481;28;20045;-69
2021/12/19 01:45:07;;;;;;;5.60;1.80;;;7.80;99.90;;;;;;5039441;28;20163;-69
2021/12/19 01:47:32;;;;;;;7.60;1.80;;;7.70;99.90;;;;;;5040889;28;20041;-69
2021/12/19 01:49:58;;;;;;;3.75;1.50;;;7.80;99.90;;;;;;5030494;28;20045;-69
2021/12/19 01:52:24;;;;;;;6.68;1.73;;;7.80;99.90;;;;;;5029310;28;20041;-69
2021/12/19 01:54:50;;;;;;;6.05;1.90;;;7.80;99.90;;;;;;5031299;28;20052;-69
2021/12/19 01:57:17;;;;;;;3.83;1.90;;;7.90;99.90;;;;;;5028271;28;20132;-69
2021/12/19 01:59:43;;;;;;;5.25;2.05;;;7.90;99.90;;;;;;5030639;28;20079;-69
2021/12/19 02:02:08;;;;;;;3.08;2.08;;;7.90;99.90;;;;;;5031658;28;20049;-69
2021/12/19 02:04:34;;;;;;;7.63;2.05;;;7.90;99.90;;;;;;5030421;28;20038;-69
2021/12/19 02:07:04;;;;;;;3.55;1.60;;;7.90;99.90;;;;;;5038420;28;20089;-69
2021/12/19 02:09:30;;;;;;;4.38;1.45;;;7.90;99.90;;;;;;5039014;28;20049;-69
2021/12/19 02:11:55;;;;;;;4.25;1.42;;;7.90;99.90;;;;;;5047646;28;20405;-69
2021/12/19 02:14:21;;;;;;;3.45;1.40;;;7.90;99.90;;;;;;5049305;28;20187;-69
2021/12/19 02:16:47;;;;;;;2.10;1.10;;;7.80;99.90;;;;;;5049589;28;20533;-69
2021/12/19 02:19:14;;;;;;;2.72;1.20;;;7.80;99.90;;;;;;5036368;28;20517;-69
2021/12/19 02:21:40;;;;;;;5.25;1.58;;;7.90;99.90;;;;;;5030158;28;20172;-70
2021/12/19 02:24:09;;;;;;;3.55;1.15;;;7.80;99.90;;;;;;5050704;28;20148;-69
2021/12/19 02:26:37;;;;;;;2.92;1.10;;;7.80;99.90;;;;;;5038187;28;20442;-69
2021/12/19 02:29:04;;;;;;;3.90;1.33;;;7.80;99.90;;;;;;5046969;28;20442;-69
2021/12/19 02:31:30;;;;;;;2.47;1.25;;;7.70;99.90;;;;;;5046032;28;20393;-70
2021/12/19 02:34:07;;;;;;;3.63;1.40;;;7.70;99.90;;;;;;5050093;28;20156;-69
2021/12/19 02:36:50;;;;;;;2.90;1.35;;;7.70;99.90;;;;;;5035550;28;20042;-70
2021/12/19 02:50:30;;;;;;;4.45;1.50;;;7.50;99.90;;;;;;5047932;28;20386;-69
2021/12/19 02:52:58;;;;;;;4.70;1.38;;;7.50;99.90;;;;;;5047907;28;20056;-69
2021/12/19 02:55:24;;;;;;;5.80;1.50;;;7.50;99.90;;;;;;5048199;28;20127;-69
2021/12/19 02:57:50;;;;;;;7.25;1.83;;;7.40;99.90;;;;;;5046573;28;20120;-69
2021/12/19 03:00:21;;;;;;;5.18;1.80;;;7.50;99.90;;;;;;5048516;28;20426;-69
2021/12/19 03:02:47;;;;;;;4.75;1.80;;;7.50;99.90;;;;;;5049233;28;20449;-69
2021/12/19 03:05:13;;;;;;;5.05;1.83;;;7.50;99.90;;;;;;5049357;28;20041;-69
2021/12/19 03:07:42;;;;;;;5.25;2.00;;;7.40;99.90;;;;;;5041658;28;20045;-69
2021/12/19 03:13:09;;;;;;;6.70;1.70;;;7.30;99.90;;;;;;5031781;28;20072;-69
2021/12/19 03:18:19;;;;;;;8.98;2.42;;;7.30;99.90;;;;;;5038354;28;20057;-70
2021/12/19 03:20:44;;;;;;;8.60;2.50;;;7.20;99.90;;;;;;5029431;28;20137;-69
2021/12/19 03:23:13;;;;;;;4.78;2.10;;;7.30;99.90;;;;;;5030034;28;20116;-69
2021/12/19 03:25:39;;;;;;;8.52;2.03;;;7.30;99.90;;;;;;5044136;28;20124;-69
2021/12/19 03:28:07;;;;;;;5.40;2.28;;;7.30;99.90;;;;;;5048676;28;20048;-69
2021/12/19 03:30:34;;;;;;;10.45;2.40;;;7.30;99.90;;;;;;5037730;28;20161;-69
2021/12/19 03:33:00;;;;;;;7.25;2.35;;;7.30;99.90;;;;;;5027951;28;20107;-69
2021/12/19 03:35:27;;;;;;;6.20;2.60;;;7.30;99.90;;;;;;5029431;28;20474;-69
2021/12/19 03:37:53;;;;;;;8.20;2.40;;;7.60;99.90;;;;;;5030892;28;20046;-69
2021/12/19 03:40:24;;;;;;;10.35;2.83;;;7.20;99.90;;;;;;5029872;28;20041;-69
2021/12/19 03:42:53;;;;;;;12.18;3.28;;;7.20;99.90;;;;;;5012432;28;20068;-69
2021/12/19 03:45:21;;;;;;;5.95;2.10;;;7.20;99.90;;;;;;5045816;28;20095;-69
2021/12/19 03:47:48;;;;;;;7.68;2.10;;;7.30;99.90;;;;;;5048166;28;20044;-69
2021/12/19 03:50:18;;;;;;;6.40;2.20;;;7.80;99.90;;;;;;5029271;28;20140;-69
2021/12/19 03:52:44;;;;;;;4.43;1.77;;;7.30;99.90;;;;;;5029430;28;20042;-69
2021/12/19 03:55:10;;;;;;;4.15;1.60;;;7.30;99.90;;;;;;5028824;28;20427;-70
2021/12/19 03:57:35;;;;;;;5.22;1.70;;;7.30;99.90;;;;;;5029564;28;20347;-69
2021/12/19 04:00:04;;;;;;;7.28;2.40;;;7.20;99.90;;;;;;5032497;28;20120;-69
2021/12/19 04:02:30;;;;;;;7.43;2.70;;;7.30;99.90;;;;;;5027831;28;20091;-69
2021/12/19 04:04:58;;;;;;;7.03;2.95;;;7.30;99.90;;;;;;5028673;28;20121;-69
2021/12/19 04:07:25;;;;;;;7.53;2.70;;;7.30;99.90;;;;;;5027174;28;20068;-69
2021/12/19 04:09:52;;;;;;;11.23;2.90;;;7.30;99.90;;;;;;5022002;28;20075;-69
2021/12/19 04:12:18;;;;;;;12.43;3.45;;;7.40;99.90;;;;;;5041235;28;20505;-70
2021/12/19 04:14:44;;;;;;;9.90;3.13;;;7.30;99.90;;;;;;5037487;28;20070;-69
2021/12/19 04:17:10;;;;;;;10.00;2.95;;;7.30;99.90;;;;;;5045756;28;20056;-70
2021/12/19 04:19:36;;;;;;;14.50;3.20;;;7.40;99.90;;;;;;5034266;28;20064;-69
2021/12/19 04:22:03;;;;;;;9.85;3.20;;;7.40;99.90;;;;;;5042360;28;20384;-69
2021/12/19 04:24:28;;;;;;;9.40;3.63;;;7.30;99.90;;;;;;5049868;28;20207;-69
2021/12/19 04:26:56;;;;;;;13.30;4.03;;;7.40;99.90;;;;;;5046951;28;20124;-69
2021/12/19 04:29:24;;;;;;;18.45;4.38;;;7.40;99.90;;;;;;5046909;28;20041;-69
2021/12/19 04:31:50;;;;;;;13.32;5.20;;;7.40;99.90;;;;;;5047692;28;20040;-69
2021/12/19 04:34:17;;;;;;;18.75;5.43;;;7.40;99.90;;;;;;5046058;28;20055;-69
2021/12/19 04:36:45;;;;;;;18.58;4.63;;;7.40;99.90;;;;;;5047263;28;20386;-69
2021/12/19 04:54:57;;;;;;;21.55;6.90;;;8.30;99.90;;;;;;5046480;28;20136;-69
2021/12/19 04:57:42;;;;;;;16.50;5.82;;;7.60;99.90;;;;;;5044977;28;20087;-69
2021/12/19 05:00:13;;;;;;;14.45;5.82;;;7.60;99.90;;;;;;5046641;28;20090;-69
2021/12/19 05:02:56;;;;;;;20.08;6.50;;;7.60;99.90;;;;;;5046255;28;20322;-69
2021/12/19 05:05:47;;;;;;;17.40;6.00;;;7.60;99.90;;;;;;5040920;28;20041;-69
2021/12/19 05:16:25;;;;;;;19.08;6.50;;;7.70;99.90;;;;;;5045904;28;20456;-69
2021/12/19 05:18:53;;;;;;;22.42;7.50;;;7.70;99.90;;;;;;5047677;28;20067;-69
2021/12/19 05:21:24;;;;;;;17.60;6.70;;;7.70;99.90;;;;;;5045991;28;20041;-69
2021/12/19 05:24:06;;;;;;;23.65;7.32;;;8.40;99.90;;;;;;5037936;28;20045;-69
2021/12/19 05:26:32;;;;;;;23.63;8.02;;;7.70;99.90;;;;;;5030047;28;20071;-69
2021/12/19 05:28:57;;;;;;;21.60;7.32;;;7.70;99.90;;;;;;5030029;28;20045;-69
2021/12/19 05:31:23;;;;;;;21.92;8.07;;;7.70;99.90;;;;;;5028925;28;20168;-69
2021/12/19 05:33:48;;;;;;;23.13;8.02;;;7.70;99.90;;;;;;5031737;28;20060;-69
2021/12/19 05:47:10;;;;;;;17.88;5.95;;;7.70;99.90;;;;;;5050855;28;20049;-70
2021/12/19 05:49:36;;;;;;;9.52;4.15;;;7.70;99.90;;;;;;5049213;28;20103;-70
2021/12/19 05:52:01;;;;;;;18.50;5.65;;;7.80;99.90;;;;;;5049351;28;20040;-69
2021/12/19 05:54:27;;;;;;;15.25;5.82;;;7.80;99.90;;;;;;5035687;28;20102;-69
2021/12/19 05:56:53;;;;;;;21.75;6.50;;;7.80;99.90;;;;;;5030878;28;20091;-68
2021/12/19 05:59:18;;;;;;;18.98;6.22;;;7.70;99.90;;;;;;5030899;28;20037;-69
2021/12/19 06:01:46;;;;;;;16.05;6.57;;;7.70;99.90;;;;;;5029479;28;20414;-69
2021/12/19 06:04:12;;;;;;;19.50;5.40;;;7.70;99.90;;;;;;5030786;28;20495;-69
2021/12/19 06:06:38;;;;;;;16.15;5.10;;;7.70;99.90;;;;;;5044830;28;20045;-69
2021/12/19 06:09:04;;;;;;;16.30;5.22;;;8.20;99.90;;;;;;5032381;28;20482;-69
2021/12/19 06:11:30;;;;;;;16.45;5.68;;;7.70;99.90;;;;;;5034686;28;20056;-69
2021/12/19 06:13:55;;;;;;;23.35;6.28;;;7.70;99.90;;;;;;5047065;28;20037;-69
2021/12/19 06:16:21;;;;;;;15.48;5.60;;;7.70;99.90;;;;;;5049620;28;20071;-69
2021/12/19 06:18:47;;;;;;;16.15;5.88;;;7.70;99.90;;;;;;5050324;28;20456;-70
2021/12/19 06:21:13;;;;;;;20.95;5.63;;;7.70;99.90;;;;;;5043787;28;20132;-70
2021/12/19 06:23:39;;;;;;;14.98;5.45;;;7.60;99.90;;;;;;5030419;28;20124;-69
2021/12/19 06:26:05;;;;;;;15.50;6.10;;;7.70;99.90;;;;;;5030645;28;20068;-69
2021/12/19 06:28:30;;;;;;;21.45;5.88;;;7.70;99.90;;;;;;5030522;28;20482;-70
2021/12/19 06:30:56;;;;;;;19.05;5.55;;;7.70;99.90;;;;;;5029101;28;20092;-69
2021/12/19 06:33:22;;;;;;;20.25;6.20;;;7.70;99.90;;;;;;5028606;28;20041;-69
2021/12/19 06:35:47;;;;;;;17.10;5.10;;;7.60;99.90;;;;;;5046117;28;20476;-69
2021/12/19 06:38:14;;;;;;;18.10;5.30;;;7.70;99.90;;;;;;5047175;28;20417;-70
2021/12/19 06:40:40;;;;;;;21.20;5.18;;;7.70;99.90;;;;;;5029143;28;20168;-69
2021/12/19 06:43:07;;;;;;;15.05;4.07;;;7.70;99.90;;;;;;5030008;28;20050;-69
2021/12/19 06:45:32;;;;;;;15.38;3.58;;;7.70;99.90;;;;;;5034446;28;20061;-70
2021/12/19 06:47:58;;;;;;;12.35;3.60;;;7.70;99.90;;;;;;5029588;28;20355;-69
2021/12/19 06:50:24;;;;;;;13.07;3.40;;;7.70;99.90;;;;;;5029788;28;20072;-69
2021/12/19 06:52:50;;;;;;;16.80;3.47;;;8.10;99.90;;;;;;5030722;28;20045;-69
2021/12/19 06:55:17;;;;;;;13.82;3.50;;;7.80;99.90;;;;;;5030983;28;20046;-70
2021/12/19 06:57:43;;;;;;;17.35;3.97;;;7.80;99.90;;;;;;5042548;28;20072;-69
2021/12/19 07:00:18;;;;;;;14.05;4.00;;;7.70;99.90;;;;;;5048164;28;20446;-70
2021/12/19 07:02:44;;;;;;;13.07;3.57;;;7.70;99.90;;;;;;5049139;28;20037;-69
2021/12/19 07:05:10;;;;;;;15.80;3.70;;;7.70;99.90;;;;;;5039744;28;20453;-69
2021/12/19 07:07:36;;;;;;;13.07;3.50;;;7.80;99.90;;;;;;5030281;28;20061;-69
2021/12/19 07:10:03;;;;;;;16.75;3.55;;;7.70;99.90;;;;;;5029205;28;20044;-69
2021/12/19 07:12:28;;;;;;;12.93;3.80;;;7.70;99.90;;;;;;5028737;28;20111;-69
2021/12/19 07:14:55;;;;;;;19.00;3.92;;;7.70;99.90;;;;;;5038487;28;20041;-69
2021/12/19 07:17:21;;;;;;;12.30;3.85;;;7.70;99.90;;;;;;5048189;28;20036;-69
2021/12/19 07:19:46;;;;;;;14.70;3.80;;;7.70;99.90;;;;;;5047310;28;20582;-69
2021/12/19 07:22:12;;;;;;;15.32;4.35;;;7.70;99.90;;;;;;5048609;28;20522;-69
2021/12/19 07:24:38;;;;;;;19.27;4.63;;;7.70;99.90;;;;;;5045645;28;20477;-69
2021/12/19 07:27:04;;;;;;;15.40;3.50;;;7.70;99.90;;;;;;5043424;28;20042;-69
2021/12/19 07:29:30;;;;;;;16.50;4.13;;;7.70;99.90;;;;;;5037986;28;20174;-69
2021/12/19 07:31:57;;;;;;;19.50;3.63;;;7.70;99.90;;;;;;5046883;28;20131;-69
2021/12/19 07:34:29;;;;;;;16.58;4.20;;;7.70;99.90;;;;;;5045832;28;20494;-69
2021/12/19 07:36:55;;;;;;;12.77;3.85;;;7.80;99.90;;;;;;5036215;28;20069;-69
2021/12/19 07:41:58;;;;;;;16.88;4.78;;;7.70;99.90;;;;;;5041759;28;20457;-69
2021/12/19 07:44:24;;;;;;;16.25;4.00;;;7.70;99.90;;;;;;5044841;28;20037;-69
2021/12/19 07:46:50;;;;;;;11.85;3.55;;;7.70;99.90;;;;;;5050140;28;20458;-69
2021/12/19 07:49:16;;;;;;;13.57;3.92;;;7.80;99.90;;;;;;5049988;28;20045;-69
2021/12/19 07:51:42;;;;;;;16.10;3.58;;;7.80;99.90;;;;;;5046403;28;20508;-69
2021/12/19 07:54:08;;;;;;;14.95;4.05;;;7.90;99.90;;;;;;5046351;28;20044;-69
2021/12/19 07:56:34;;;;;;;18.00;4.35;;;7.80;99.90;;;;;;5046877;28;20056;-70
2021/12/19 07:59:00;;;;;;;20.23;4.55;;;7.80;99.90;;;;;;5036695;28;20414;-69
2021/12/19 08:01:26;;;;;;;17.13;3.50;;;7.80;99.90;;;;;;5029083;28;20041;-69
2021/12/19 08:03:51;;;;;;;12.32;3.50;;;7.80;99.90;;;;;;5028130;28;20068;-69
2021/12/19 08:06:17;;;;;;;16.55;3.95;;;7.80;99.90;;;;;;5042281;28;20401;-69
2021/12/19 08:08:49;;;;;;;18.88;3.72;;;7.80;99.90;;;;;;5047743;28;20045;-70
2021/12/19 08:13:59;;;;;;;16.10;3.78;;;7.80;99.90;;;;;;5037016;28;20505;-69
2021/12/19 08:16:25;;;;;;;9.07;2.65;;;7.80;99.90;;;;;;5036171;28;20156;-69
2021/12/19 08:18:52;;;;;;;13.25;3.38;;;7.90;99.90;;;;;;5036727;28;20124;-69
2021/12/19 08:21:19;;;;;;;13.18;3.70;;;7.90;99.90;;;;;;5045189;28;20072;-70
2021/12/19 08:23:44;;;;;;;17.20;3.70;;;8.00;99.90;;;;;;5046805;28;20044;-66
2021/12/19 08:26:10;;;;;;;15.45;3.42;;;8.60;99.90;;;;;;5045782;28;20060;-66
2021/12/19 08:28:36;;;;;;;11.80;3.05;;;7.90;99.90;;;;;;5044921;28;20045;-66
2021/12/19 08:31:02;;;;;;;17.17;4.03;;;8.00;99.90;;;;;;5041605;28;20041;-66
2021/12/19 08:33:27;;;;;;;15.55;3.38;;;8.00;99.90;;;;;;5042382;28;20041;-66
2021/12/19 08:35:53;;;;;;;15.23;3.55;;;7.90;99.90;;;;;;5027698;28;20072;-66
2021/12/19 08:38:18;;;;;;;14.32;3.85;;;7.90;99.90;;;;;;5028789;28;20050;-66
2021/12/19 08:40:46;;;;;;;17.13;4.05;;;8.00;99.90;;;;;;5047323;28;20051;-67
2021/12/19 08:43:12;;;;;;;14.20;3.63;;;7.90;99.90;;;;;;5047794;28;20072;-66
2021/12/19 08:45:37;;;;;;;18.17;4.28;;;8.00;99.90;;;;;;5049459;28;20497;-66
2021/12/19 08:48:04;;;;;;;17.05;3.90;;;8.00;99.90;;;;;;5048408;28;20464;-66
2021/12/19 08:50:30;;;;;;;17.77;3.47;;;8.00;99.90;;;;;;5045424;28;20441;-66
2021/12/19 08:52:55;;;;;;;18.17;4.13;;;8.70;99.90;;;;;;5047035;28;20052;-67
2021/12/19 08:55:22;;;;;;;15.18;3.50;;;7.90;99.90;;;;;;5046053;28;20052;-66
2021/12/19 08:57:48;;;;;;;14.77;3.60;;;7.90;99.90;;;;;;5039254;28;20051;-67
2021/12/19 09:00:14;;;;;;;16.02;3.80;;;7.90;99.90;;;;;;5031552;28;20049;-66
2021/12/19 09:02:43;;;;;;;19.48;3.90;;;7.90;99.90;;;;;;5040108;28;20043;-66
2021/12/19 09:05:08;;;;;;;21.25;4.32;;;8.00;99.90;;;;;;5049692;28;20044;-66
2021/12/19 09:07:35;;;;;;;17.05;4.75;;;8.00;99.90;;;;;;5051626;28;20059;-66
2021/12/19 09:10:00;;;;;;;22.48;3.67;;;8.10;99.90;;;;;;5051607;28;20045;-66
2021/12/19 09:12:27;;;;;;;16.65;3.97;;;8.00;99.90;;;;;;5050247;28;20041;-66
2021/12/19 09:14:53;;;;;;;17.48;3.40;;;8.00;99.90;;;;;;5040692;28;20048;-66
2021/12/19 09:17:19;;;;;;;20.40;3.97;;;8.00;99.90;;;;;;5046890;28;20124;-67
2021/12/19 09:19:45;;;;;;;15.00;3.80;;;8.00;99.90;;;;;;5048577;28;20542;-66
2021/12/19 09:22:11;;;;;;;17.50;4.22;;;8.10;99.90;;;;;;5032499;28;20122;-66
2021/12/19 09:24:36;;;;;;;16.65;3.60;;;8.10;99.90;;;;;;5032598;28;20076;-67
2021/12/19 09:27:03;;;;;;;15.07;3.30;;;8.10;99.90;;;;;;5029918;28;20060;-68
2021/12/19 09:29:29;;;;;;;17.35;4.03;;;8.10;99.90;;;;;;5030479;28;20413;-67
2021/12/19 09:31:56;;;;;;;15.85;4.57;;;8.10;99.90;;;;;;5034399;28;20064;-66
2021/12/19 09:34:23;;;;;;;19.00;3.97;;;8.10;99.90;;;;;;5039138;28;20048;-66
2021/12/19 09:36:49;;;;;;;14.60;4.07;;;8.00;99.90;;;;;;5034000;28;20375;-66
2021/12/19 09:39:15;;;;;;;17.50;3.83;;;8.10;99.90;;;;;;5044715;28;20089;-67
2021/12/19 09:41:44;;;;;;;20.13;4.30;;;8.00;99.90;;;;;;5048484;28;20040;-68
2021/12/19 09:44:13;;;;;;;23.85;4.72;;;8.10;99.90;;;;;;5050995;28;20056;-67
2021/12/19 09:46:42;;;;;;;15.55;3.78;;;8.00;99.90;;;;;;5049073;28;20106;-67
2021/12/19 09:49:12;;;;;;;21.10;3.60;;;8.10;99.90;;;;;;5050223;28;20072;-68
2021/12/19 09:51:39;;;;;;;17.13;3.92;;;8.10;99.90;;;;;;5048934;28;20397;-67
2021/12/19 09:54:06;;;;;;;16.05;3.90;;;8.10;99.90;;;;;;5033066;28;20041;-68
2021/12/19 09:56:33;;;;;;;15.57;3.50;;;8.20;99.90;;;;;;5027816;28;20049;-67
2021/12/19 09:59:08;;;;;;;16.80;3.75;;;8.20;99.90;;;;;;5013460;28;20150;-67
2021/12/19 10:01:34;;;;;;;16.83;3.90;;;8.20;99.90;;;;;;5032151;28;20045;-67
2021/12/19 10:03:59;;;;;;;16.85;3.50;;;8.30;99.90;;;;;;5049999;28;20472;-67
2021/12/19 10:06:28;;;;;;;17.17;3.83;;;8.30;99.90;;;;;;5049300;28;20053;-67
2021/12/19 10:09:18;;;;;;;15.95;4.00;;;8.40;99.90;;;;;;5033072;28;20405;-67
2021/12/19 10:14:29;;;;;;;16.15;3.08;;;8.40;99.90;;;;;;5050842;28;20530;-66
2021/12/19 10:17:00;;;;;;;15.10;2.95;;;8.40;99.90;;;;;;5042071;28;20052;-66
2021/12/19 10:19:50;;;;;;;17.40;3.60;;;8.40;99.90;;;;;;5029618;28;20571;-65
2021/12/19 10:22:24;;;;;;;10.60;3.40;;;8.40;99.90;;;;;;5028449;28;20060;-66
2021/12/19 10:24:51;;;;;;;18.95;4.05;;;8.30;99.90;;;;;;5032852;28;20044;-66
2021/12/19 10:27:38;;;;;;;13.15;2.50;;;8.30;99.90;;;;;;5037990;28;20045;-68
2021/12/19 10:30:09;;;;;;;15.32;2.83;;;8.50;99.90;;;;;;5050657;28;20044;-67
2021/12/19 10:32:35;;;;;;;13.07;2.90;;;8.40;99.90;;;;;;5033679;28;20526;-68
2021/12/19 10:35:29;;;;;;;15.70;2.90;;;8.40;99.90;;;;;;5029109;28;20132;-68
2021/12/19 10:37:55;;;;;;;14.40;3.00;;;8.40;99.90;;;;;;5043093;28;20085;-68
2021/12/19 10:40:22;;;;;;;13.55;3.55;;;8.50;99.90;;;;;;5047839;28;20045;-65
2021/12/19 10:42:59;;;;;;;13.15;2.50;;;8.50;99.90;;;;;;5036802;28;20088;-67
2021/12/19 10:45:32;;;;;;;13.40;2.70;;;8.50;99.90;;;;;;5031048;28;20369;-65
2021/12/19 10:48:17;;;;;;;12.15;2.75;;;8.60;99.90;;;;;;5032044;28;20099;-65
2021/12/19 10:51:09;;;;;;;15.50;3.75;;;8.60;99.90;;;;;;5028467;28;20051;-66
2021/12/19 10:53:44;;;;;;;14.60;2.95;;;8.60;99.90;;;;;;5025426;28;20460;-65
2021/12/19 10:56:13;;;;;;;17.40;3.10;;;8.60;99.90;;;;;;5028865;28;20151;-66
2021/12/19 10:59:04;;;;;;;13.75;2.90;;;8.60;99.90;;;;;;5029531;28;20836;-65
2021/12/19 11:01:38;;;;;;;11.38;2.50;;;8.60;99.90;;;;;;5028079;28;20045;-66
2021/12/19 11:04:07;;;;;;;17.13;3.20;;;8.60;99.90;;;;;;5012441;28;20107;-66
2021/12/19 11:06:58;;;;;;;14.02;3.70;;;8.60;99.90;;;;;;5026343;28;20053;-66
2021/12/19 11:09:34;;;;;;;15.50;3.20;;;8.70;99.90;;;;;;5034039;28;20116;-66
2021/12/19 11:12:11;;;;;;;14.32;3.42;;;8.70;99.90;;;;;;5046749;28;20154;-66
2021/12/19 11:14:38;;;;;;;17.42;3.58;;;8.70;99.90;;;;;;5048896;28;20037;-66
2021/12/19 11:17:07;;;;;;;16.05;3.50;;;8.70;99.90;;;;;;5049298;28;20049;-66
2021/12/19 11:19:34;;;;;;;15.80;3.20;;;8.70;99.90;;;;;;5048198;28;20067;-66
2021/12/19 11:22:00;;;;;;;15.02;3.10;;;8.60;99.90;;;;;;5047612;28;20130;-66
2021/12/19 11:24:26;;;;;;;18.63;3.30;;;8.70;99.90;;;;;;5047753;28;20442;-66
2021/12/19 11:26:55;;;;;;;18.00;3.40;;;8.70;99.90;;;;;;5048293;28;20370;-66
2021/12/19 11:29:22;;;;;;;12.27;2.67;;;8.70;99.90;;;;;;5044805;28;20048;-66
2021/12/19 11:31:52;;;;;;;11.20;2.75;;;8.70;99.90;;;;;;5048728;28;20051;-66
2021/12/19 11:34:32;;;;;;;13.45;3.17;;;8.80;99.90;;;;;;5048450;28;20055;-66
2021/12/19 11:37:12;;;;;;;12.13;2.95;;;8.80;99.90;;;;;;5048306;28;20041;-66
2021/12/19 11:39:43;;;;;;;18.83;3.78;;;8.80;99.90;;;;;;5048656;28;20045;-66
2021/12/19 11:42:10;;;;;;;17.33;3.40;;;8.80;99.90;;;;;;5046165;28;20397;-66
2021/12/19 11:44:48;;;;;;;22.83;3.88;;;8.80;99.90;;;;;;5041726;28;20416;-66
2021/12/19 11:47:33;;;;;;;19.90;3.85;;;8.80;99.90;;;;;;5027771;28;20383;-66
2021/12/19 11:50:28;;;;;;;19.67;3.55;;;8.90;99.90;;;;;;5027804;28;20107;-66
2021/12/19 11:52:59;;;;;;;15.80;3.53;;;8.90;99.90;;;;;;5026308;28;20057;-66
2021/12/19 11:55:30;;;;;;;16.88;3.60;;;8.90;99.90;;;;;;5026764;28;20184;-66
2021/12/19 11:58:08;;;;;;;19.80;3.67;;;8.80;99.90;;;;;;5027374;28;20052;-66
2021/12/19 12:00:57;;;;;;;22.90;4.22;;;8.90;99.90;;;;;;5029307;28;20708;-66
2021/12/19 12:03:49;;;;;;;19.77;4.05;;;8.90;99.90;;;;;;5009690;28;20056;-67
2021/12/19 12:06:17;;;;;;;23.33;4.63;;;8.90;99.90;;;;;;5042412;28;20129;-66
2021/12/19 12:09:08;;;;;;;26.10;4.03;;;8.90;99.90;;;;;;5027534;28;20474;-66
2021/12/19 12:11:36;;;;;;;22.48;3.47;;;9.00;99.90;;;;;;5025888;28;20092;-66
2021/12/19 12:14:24;;;;;;;22.42;4.32;;;8.90;99.90;;;;;;5028489;28;20061;-66
2021/12/19 12:17:04;;;;;;;17.58;3.67;;;8.90;99.90;;;;;;5026267;28;20107;-67
2021/12/19 12:19:49;;;;;;;16.45;3.60;;;9.00;99.90;;;;;;5026899;28;20103;-67
2021/12/19 12:22:24;;;;;;;21.23;3.67;;;8.90;99.90;;;;;;5033859;28;20186;-66
2021/12/19 12:25:30;;;;;;;23.33;5.07;;;9.00;99.90;;;;;;5037556;28;20116;-66
2021/12/19 12:28:09;;;;;;;19.45;3.33;;;8.90;99.90;;;;;;5038090;28;20137;-66
2021/12/19 12:31:01;;;;;;;15.82;3.58;;;9.00;99.90;;;;;;5009124;28;20045;-66
2021/12/19 12:33:27;;;;;;;16.00;3.75;;;9.00;99.90;;;;;;5034146;28;20497;-67
2021/12/19 12:35:54;;;;;;;19.55;4.00;;;8.50;99.90;;;;;;5026950;28;20046;-66
2021/12/19 12:38:20;;;;;;;21.42;4.30;;;9.00;99.90;;;;;;5040282;28;20048;-67
2021/12/19 12:40:56;;;;;;;18.35;3.25;;;9.00;99.90;;;;;;5047541;28;20374;-66
2021/12/19 12:43:26;;;;;;;29.33;5.70;;;9.00;99.90;;;;;;5046839;28;20060;-67
2021/12/19 12:46:07;;;;;;;26.20;3.47;;;9.00;99.90;;;;;;5044001;28;20063;-66
2021/12/19 12:48:56;;;;;;;19.80;3.50;;;8.90;99.90;;;;;;5028924;28;20144;-67
2021/12/19 12:51:34;;;;;;;19.77;3.75;;;8.90;99.90;;;;;;5026979;28;20049;-67
2021/12/19 12:54:03;;;;;;;21.52;3.83;;;8.90;99.90;;;;;;5027091;28;20057;-67
2021/12/19 12:56:34;;;;;;;22.50;3.88;;;8.90;99.90;;;;;;5025871;28;20041;-66
2021/12/19 12:59:01;;;;;;;23.45;4.25;;;8.90;99.90;;;;;;5025773;28;20049;-66
2021/12/19 13:01:41;;;;;;;19.75;4.07;;;8.90;99.90;;;;;;5027140;28;20049;-67
2021/12/19 13:04:17;;;;;;;14.80;3.28;;;8.90;99.90;;;;;;5028304;28;20099;-67
2021/12/19 13:06:45;;;;;;;18.27;4.28;;;8.90;99.90;;;;;;5025355;28;20200;-67
2021/12/19 13:09:10;;;;;;;15.70;3.28;;;8.90;99.90;;;;;;5027247;28;20042;-66
2021/12/19 13:11:37;;;;;;;17.92;3.17;;;8.90;99.90;;;;;;5027376;28;20118;-67
2021/12/19 13:14:24;;;;;;;20.40;4.05;;;8.90;99.90;;;;;;5026899;28;20042;-67
2021/12/19 13:16:55;;;;;;;19.13;3.80;;;8.90;99.90;;;;;;5027448;28;20512;-67
2021/12/19 13:19:37;;;;;;;16.58;3.90;;;8.90;99.90;;;;;;5026087;28;20410;-67
2021/12/19 13:22:08;;;;;;;17.98;3.45;;;8.90;99.90;;;;;;5027294;28;20049;-66
2021/12/19 13:24:35;;;;;;;18.48;3.65;;;8.90;99.90;;;;;;5030227;28;20339;-66
2021/12/19 13:27:21;;;;;;;20.48;3.83;;;9.00;99.90;;;;;;5043923;28;20049;-67
2021/12/19 13:30:03;;;;;;;19.83;3.95;;;9.60;99.90;;;;;;5045951;28;20051;-67
2021/12/19 13:32:33;;;;;;;12.27;2.97;;;8.90;99.90;;;;;;5046911;28;20476;-66
2021/12/19 13:35:01;;;;;;;16.58;4.22;;;8.90;99.90;;;;;;5045419;28;20099;-67
2021/12/19 13:37:32;;;;;;;18.52;4.38;;;8.90;99.90;;;;;;5044259;28;20501;-67
2021/12/19 13:40:10;;;;;;;20.35;3.63;;;8.90;99.90;;;;;;5047244;28;20049;-66
2021/12/19 13:42:42;;;;;;;18.23;3.85;;;8.90;99.90;;;;;;5046472;28;20061;-67
2021/12/19 13:45:20;;;;;;;25.95;4.50;;;9.00;99.90;;;;;;5049303;28;20053;-67
2021/12/19 13:47:47;;;;;;;21.58;3.58;;;9.00;99.90;;;;;;5048492;28;20056;-67
2021/12/19 13:50:13;;;;;;;22.23;3.90;;;9.00;99.90;;;;;;5052298;28;20406;-67
2021/12/19 13:52:38;;;;;;;21.38;4.20;;;9.00;99.90;;;;;;5050209;28;20508;-67
2021/12/19 13:55:10;;;;;;;27.70;3.75;;;9.00;99.90;;;;;;5049909;28;20539;-66
2021/12/19 13:57:36;;;;;;;17.90;3.80;;;9.00;99.90;;;;;;5048200;28;20065;-67
2021/12/19 14:00:09;;;;;;;17.45;3.88;;;9.00;99.90;;;;;;5050494;28;20049;-67
2021/12/19 14:02:39;;;;;;;14.07;3.38;;;9.00;99.90;;;;;;5049852;28;20471;-66
2021/12/19 14:05:29;;;;;;;20.10;3.40;;;9.00;99.90;;;;;;5048742;28;20087;-66